createdAt,value
2022-10-06T00:00:11.202Z,8.20
2022-10-06T00:02:38.139Z,8.16
2022-10-06T00:05:05.356Z,8.04
2022-10-06T00:07:33.299Z,7.92
2022-10-06T00:10:00.109Z,7.85
2022-10-06T00:12:27.007Z,7.88
2022-10-06T00:14:53.813Z,7.89
2022-10-06T00:17:22.216Z,7.86
2022-10-06T00:19:48.967Z,7.84
2022-10-06T00:22:15.809Z,7.77
2022-10-06T00:24:42.750Z,7.78
2022-10-06T00:27:09.482Z,8.04
2022-10-06T00:29:37.533Z,8.11
2022-10-06T00:32:06.867Z,8.08
2022-10-06T00:34:35.354Z,8.10
2022-10-06T00:37:02.267Z,8.18
2022-10-06T00:39:29.091Z,8.04
2022-10-06T00:41:56.903Z,7.99
2022-10-06T00:44:23.808Z,7.96
2022-10-06T00:46:52.547Z,7.88
2022-10-06T00:49:23.627Z,7.98
2022-10-06T00:51:54.802Z,8.03
2022-10-06T00:54:22.130Z,7.92
2022-10-06T00:56:49.006Z,7.89
2022-10-06T00:59:18.720Z,7.85
2022-10-06T01:01:53.890Z,7.90
2022-10-06T01:04:24.163Z,7.91
2022-10-06T01:06:54.770Z,7.81
2022-10-06T01:09:23.563Z,7.84
2022-10-06T01:11:53.171Z,7.83
2022-10-06T01:14:21.735Z,7.87
2022-10-06T01:16:53.259Z,7.56
2022-10-06T01:19:32.408Z,7.75
2022-10-06T01:22:04.406Z,7.64
2022-10-06T01:24:33.286Z,7.54
2022-10-06T01:27:01.368Z,7.57
2022-10-06T01:29:32.279Z,7.71
2022-10-06T01:31:59.682Z,7.81
2022-10-06T01:34:26.579Z,7.87
2022-10-06T01:36:53.432Z,7.82
2022-10-06T01:39:20.202Z,7.69
2022-10-06T01:41:48.517Z,7.67
2022-10-06T01:44:15.430Z,7.57
2022-10-06T01:46:42.687Z,7.74
2022-10-06T01:49:09.470Z,7.84
2022-10-06T01:51:36.402Z,7.80
2022-10-06T01:54:03.275Z,7.64
2022-10-06T01:56:31.106Z,7.48
2022-10-06T01:58:59.259Z,7.51
2022-10-06T02:01:26.269Z,7.50
2022-10-06T02:03:53.096Z,7.50
2022-10-06T02:06:20.158Z,7.55
2022-10-06T02:08:46.987Z,7.65
2022-10-06T02:11:13.895Z,7.69
2022-10-06T02:13:41.247Z,7.71
2022-10-06T02:16:10.090Z,7.59
2022-10-06T02:18:37.062Z,7.59
2022-10-06T02:21:05.784Z,7.56
2022-10-06T02:23:33.630Z,7.69
2022-10-06T02:26:00.875Z,7.70
2022-10-06T02:28:28.996Z,7.67
2022-10-06T02:31:00.439Z,7.53
2022-10-06T02:33:28.982Z,7.66
2022-10-06T02:35:56.532Z,7.57
2022-10-06T02:38:24.097Z,7.67
2022-10-06T02:40:50.911Z,7.70
2022-10-06T02:43:18.099Z,7.59
2022-10-06T02:45:52.207Z,7.53
2022-10-06T02:48:21.297Z,7.46
2022-10-06T02:50:55.026Z,7.44
2022-10-06T02:53:21.896Z,7.19
2022-10-06T02:55:48.743Z,7.21
2022-10-06T02:58:15.606Z,7.30
2022-10-06T03:00:42.359Z,7.25
2022-10-06T03:03:09.365Z,7.18
2022-10-06T03:05:36.164Z,7.04
2022-10-06T03:08:05.445Z,7.06
2022-10-06T03:10:32.199Z,7.11
2022-10-06T03:12:58.940Z,7.04
2022-10-06T03:15:25.786Z,6.99
2022-10-06T03:17:52.879Z,6.92
2022-10-06T03:20:20.072Z,6.98
2022-10-06T03:22:46.791Z,7.08
2022-10-06T03:25:16.404Z,6.99
2022-10-06T03:27:43.146Z,6.97
2022-10-06T03:30:10.716Z,7.17
2022-10-06T03:32:37.554Z,7.20
2022-10-06T03:35:05.007Z,7.11
2022-10-06T03:37:31.963Z,6.96
2022-10-06T03:39:58.773Z,6.83
2022-10-06T03:42:27.128Z,6.82
2022-10-06T03:44:54.023Z,6.86
2022-10-06T03:47:20.809Z,6.78
2022-10-06T03:49:48.703Z,6.76
2022-10-06T03:52:15.475Z,6.93
2022-10-06T03:54:43.407Z,6.93
2022-10-06T03:57:10.416Z,6.76
2022-10-06T03:59:38.598Z,6.81
2022-10-06T04:02:05.497Z,6.87
2022-10-06T04:04:35.711Z,6.84
2022-10-06T04:07:02.714Z,6.75
2022-10-06T04:09:31.589Z,6.63
2022-10-06T04:11:58.319Z,6.58
2022-10-06T04:14:25.510Z,6.68
2022-10-06T04:16:53.647Z,6.64
2022-10-06T04:19:20.549Z,6.81
2022-10-06T04:21:49.832Z,6.73
2022-10-06T04:24:19.054Z,6.80
2022-10-06T04:26:47.215Z,6.75
2022-10-06T04:29:14.810Z,6.81
2022-10-06T04:31:42.079Z,6.88
2022-10-06T04:34:11.494Z,6.81
2022-10-06T04:36:42.253Z,6.55
2022-10-06T04:39:11.157Z,6.54
2022-10-06T04:41:40.835Z,6.61
2022-10-06T04:44:08.299Z,6.66
2022-10-06T04:46:44.802Z,6.68
2022-10-06T04:49:20.993Z,6.54
2022-10-06T04:51:48.481Z,6.55
2022-10-06T04:54:15.679Z,6.61
2022-10-06T04:56:42.567Z,6.67
2022-10-06T04:59:09.408Z,6.68
2022-10-06T05:01:37.503Z,6.66
2022-10-06T05:04:05.397Z,6.65
2022-10-06T05:06:35.566Z,6.65
2022-10-06T05:09:05.251Z,6.65
2022-10-06T05:11:32.000Z,6.56
2022-10-06T05:13:59.664Z,6.56
2022-10-06T05:16:28.526Z,6.60
2022-10-06T05:18:55.742Z,6.52
2022-10-06T05:21:24.244Z,6.52
2022-10-06T05:23:52.557Z,6.38
2022-10-06T05:26:21.816Z,6.52
2022-10-06T05:28:51.113Z,6.61
2022-10-06T05:31:19.883Z,6.68
2022-10-06T05:33:47.307Z,6.61
2022-10-06T05:36:17.894Z,6.60
2022-10-06T05:38:46.306Z,6.64
2022-10-06T05:41:17.218Z,6.81
2022-10-06T05:43:44.706Z,6.92
2022-10-06T05:46:13.667Z,6.90
2022-10-06T05:48:40.661Z,6.90
2022-10-06T05:51:09.753Z,6.88
2022-10-06T05:53:37.553Z,6.89
2022-10-06T05:56:06.587Z,6.84
2022-10-06T05:58:36.258Z,7.01
2022-10-06T06:01:11.611Z,7.00
2022-10-06T06:03:39.887Z,6.95
2022-10-06T06:06:15.979Z,6.89
2022-10-06T06:08:42.879Z,7.08
2022-10-06T06:11:12.776Z,7.00
2022-10-06T06:13:41.459Z,7.01
2022-10-06T06:16:15.799Z,7.12
2022-10-06T06:18:42.707Z,7.13
2022-10-06T06:21:11.248Z,7.21
2022-10-06T06:23:40.976Z,7.21
2022-10-06T06:26:15.469Z,7.26
2022-10-06T06:28:44.538Z,7.19
2022-10-06T06:31:17.599Z,7.27
2022-10-06T06:33:47.886Z,7.31
2022-10-06T06:36:18.306Z,7.36
2022-10-06T06:38:47.822Z,7.55
2022-10-06T06:41:18.396Z,7.77
2022-10-06T06:43:47.776Z,7.99
2022-10-06T06:46:17.966Z,8.26
2022-10-06T06:48:45.106Z,8.48
2022-10-06T06:51:12.877Z,8.68
2022-10-06T06:53:40.398Z,8.94
2022-10-06T06:56:08.426Z,9.16
2022-10-06T06:58:35.331Z,9.45
2022-10-06T07:01:09.040Z,9.77
2022-10-06T07:03:56.723Z,10.06
2022-10-06T07:06:27.754Z,10.21
2022-10-06T07:08:56.003Z,10.27
2022-10-06T07:11:24.872Z,10.37
2022-10-06T07:13:54.056Z,10.48
2022-10-06T07:16:23.083Z,10.65
2022-10-06T07:18:49.893Z,10.86
2022-10-06T07:21:17.260Z,11.05
2022-10-06T07:23:51.915Z,11.37
2022-10-06T07:26:18.688Z,11.72
2022-10-06T07:28:45.758Z,11.98
2022-10-06T07:31:12.567Z,12.22
2022-10-06T07:33:41.173Z,12.45
2022-10-06T07:36:08.277Z,12.67
2022-10-06T07:38:36.322Z,12.85
2022-10-06T07:41:21.059Z,13.05
2022-10-06T07:43:48.284Z,13.25
2022-10-06T07:46:15.194Z,13.40
2022-10-06T07:48:43.630Z,13.59
2022-10-06T07:51:13.893Z,13.74
2022-10-06T07:53:41.026Z,13.92
2022-10-06T07:56:08.665Z,14.05
2022-10-06T07:58:35.363Z,14.22
2022-10-06T08:01:05.934Z,14.33
2022-10-06T08:03:33.146Z,14.44
2022-10-06T08:06:02.266Z,14.57
2022-10-06T08:08:34.352Z,14.65
2022-10-06T08:11:02.316Z,14.75
2022-10-06T08:13:29.104Z,14.82
2022-10-06T08:16:04.448Z,14.94
2022-10-06T08:18:46.037Z,15.03
2022-10-06T08:21:17.415Z,15.13
2022-10-06T08:23:45.627Z,15.28
2022-10-06T08:26:15.292Z,15.38
2022-10-06T08:28:45.452Z,15.41
2022-10-06T08:31:15.916Z,15.52
2022-10-06T08:33:44.446Z,15.58
2022-10-06T08:36:15.666Z,15.63
2022-10-06T08:38:42.841Z,15.70
2022-10-06T08:41:23.959Z,15.80
2022-10-06T08:43:59.228Z,15.76
2022-10-06T08:46:32.322Z,15.94
2022-10-06T08:48:59.102Z,16.00
2022-10-06T08:51:39.411Z,16.09
2022-10-06T08:54:12.775Z,16.11
2022-10-06T08:56:54.273Z,16.09
2022-10-06T08:59:21.442Z,16.07
2022-10-06T09:01:50.503Z,16.02
2022-10-06T09:04:22.835Z,16.00
2022-10-06T09:06:59.695Z,16.02
2022-10-06T09:09:46.641Z,15.99
2022-10-06T09:12:19.477Z,16.11
2022-10-06T09:14:49.627Z,16.23
2022-10-06T09:17:26.152Z,16.38
2022-10-06T09:19:58.628Z,16.53
2022-10-06T09:22:31.516Z,16.65
2022-10-06T09:25:05.458Z,16.84
2022-10-06T09:27:33.922Z,16.98
2022-10-06T09:30:01.604Z,17.11
2022-10-06T09:32:30.706Z,17.23
2022-10-06T09:34:58.515Z,17.33
2022-10-06T09:37:27.800Z,17.40
2022-10-06T09:39:55.553Z,17.51
2022-10-06T09:42:25.919Z,17.62
2022-10-06T09:44:58.187Z,17.65
2022-10-06T09:47:38.939Z,17.75
2022-10-06T09:50:19.097Z,17.80
2022-10-06T09:55:48.936Z,18.02
2022-10-06T09:58:20.403Z,18.10
2022-10-06T10:00:52.534Z,18.23
2022-10-06T10:03:20.243Z,18.28
2022-10-06T10:05:50.152Z,18.36
2022-10-06T10:08:20.721Z,18.41
2022-10-06T10:11:11.950Z,18.54
2022-10-06T10:13:42.702Z,18.49
2022-10-06T10:16:10.095Z,18.55
2022-10-06T10:18:37.068Z,18.54
2022-10-06T10:21:06.075Z,18.65
2022-10-06T10:23:34.069Z,18.76
2022-10-06T10:26:08.595Z,18.84
2022-10-06T10:28:51.882Z,18.81
2022-10-06T10:31:28.277Z,18.86
2022-10-06T10:34:12.696Z,18.93
2022-10-06T10:36:53.393Z,18.89
2022-10-06T10:39:32.468Z,18.95
2022-10-06T10:42:09.787Z,19.01
2022-10-06T10:44:40.286Z,19.09
2022-10-06T10:47:18.335Z,19.08
2022-10-06T10:49:53.764Z,19.02
2022-10-06T10:52:26.671Z,19.11
2022-10-06T10:55:05.204Z,19.14
2022-10-06T10:57:39.770Z,19.23
2022-10-06T11:00:08.758Z,18.99
2022-10-06T11:02:35.712Z,19.15
2022-10-06T11:05:05.272Z,19.31
2022-10-06T11:07:36.872Z,19.36
2022-10-06T11:10:12.173Z,19.33
2022-10-06T11:12:54.311Z,19.37
2022-10-06T11:15:27.068Z,19.47
2022-10-06T11:18:01.612Z,19.57
2022-10-06T11:20:42.226Z,19.68
2022-10-06T11:23:26.626Z,19.84
2022-10-06T11:26:01.370Z,19.92
2022-10-06T11:28:32.972Z,19.95
2022-10-06T11:31:06.866Z,19.89
2022-10-06T11:33:41.559Z,19.99
2022-10-06T11:36:14.680Z,20.09
2022-10-06T11:38:48.639Z,19.90
2022-10-06T11:41:21.511Z,20.12
2022-10-06T11:43:55.118Z,20.21
2022-10-06T11:46:32.363Z,20.18
2022-10-06T11:49:38.259Z,20.30
2022-10-06T11:52:41.815Z,20.13
2022-10-06T11:55:15.262Z,20.14
2022-10-06T12:01:06.993Z,20.05
2022-10-06T12:04:02.819Z,20.14
2022-10-06T12:06:53.343Z,20.17
2022-10-06T12:09:52.973Z,20.25
2022-10-06T12:13:06.065Z,20.27
2022-10-06T12:19:07.686Z,20.18
2022-10-06T12:21:50.337Z,20.19
2022-10-06T12:24:29.517Z,20.21
2022-10-06T12:27:17.515Z,20.26
2022-10-06T12:29:50.989Z,20.41
2022-10-06T12:32:33.106Z,20.38
2022-10-06T12:35:16.337Z,20.46
2022-10-06T12:37:46.395Z,20.48
2022-10-06T12:40:50.053Z,20.40
2022-10-06T12:43:48.254Z,20.42
2022-10-06T12:46:23.912Z,20.31
2022-10-06T12:49:12.249Z,20.40
2022-10-06T12:51:43.126Z,20.50
2022-10-06T12:54:16.522Z,20.43
2022-10-06T12:56:43.998Z,20.35
2022-10-06T12:59:17.757Z,20.22
2022-10-06T13:01:44.903Z,20.30
2022-10-06T13:04:30.115Z,20.37
2022-10-06T13:06:59.527Z,20.50
2022-10-06T13:09:26.300Z,20.60
2022-10-06T13:11:53.281Z,20.57
2022-10-06T13:14:22.196Z,20.44
2022-10-06T13:16:49.871Z,20.28
2022-10-06T13:19:22.378Z,20.28
2022-10-06T13:21:49.436Z,20.38
2022-10-06T13:24:26.971Z,20.38
2022-10-06T13:26:54.573Z,20.44
2022-10-06T13:29:23.329Z,20.46
2022-10-06T13:31:53.257Z,20.47
2022-10-06T13:34:27.747Z,20.53
2022-10-06T13:36:55.701Z,20.55
2022-10-06T13:39:25.485Z,20.56
2022-10-06T13:41:56.341Z,20.49
2022-10-06T13:44:35.309Z,20.48
2022-10-06T13:47:08.249Z,20.42
2022-10-06T13:49:48.612Z,20.40
2022-10-06T13:52:18.266Z,20.33
2022-10-06T13:54:52.759Z,20.29
2022-10-06T13:57:42.049Z,19.92
2022-10-06T14:00:20.536Z,20.06
2022-10-06T14:02:49.487Z,19.99
2022-10-06T14:05:25.483Z,19.95
2022-10-06T14:07:54.111Z,19.83
2022-10-06T14:12:54.050Z,19.65
2022-10-06T14:15:24.643Z,19.48
2022-10-06T14:17:57.107Z,19.36
2022-10-06T14:20:44.405Z,19.08
2022-10-06T14:23:40.869Z,18.88
2022-10-06T14:26:11.547Z,18.90
2022-10-06T14:28:38.917Z,18.84
2022-10-06T14:31:08.681Z,18.83
2022-10-06T14:33:37.555Z,18.78
2022-10-06T14:36:05.962Z,18.71
2022-10-06T14:38:32.715Z,18.66
2022-10-06T14:41:02.086Z,18.63
2022-10-06T14:43:30.441Z,18.49
2022-10-06T14:45:57.184Z,18.40
2022-10-06T14:48:24.818Z,18.42
2022-10-06T14:50:52.208Z,18.37
2022-10-06T14:53:19.116Z,18.28
2022-10-06T14:55:47.209Z,18.27
2022-10-06T14:58:14.030Z,18.16
2022-10-06T15:00:42.176Z,18.07
2022-10-06T15:03:09.227Z,17.97
2022-10-06T15:05:36.047Z,17.87
2022-10-06T15:08:03.343Z,17.81
2022-10-06T15:10:30.139Z,17.75
2022-10-06T15:12:58.050Z,17.67
2022-10-06T15:15:24.919Z,17.57
2022-10-06T15:17:53.267Z,17.41
2022-10-06T15:20:20.071Z,17.37
2022-10-06T15:22:46.841Z,17.27
2022-10-06T15:25:15.960Z,17.17
2022-10-06T15:27:42.830Z,17.01
2022-10-06T15:30:11.388Z,16.93
2022-10-06T15:32:39.030Z,16.71
2022-10-06T15:35:08.122Z,16.47
2022-10-06T15:37:34.982Z,16.39
2022-10-06T15:40:04.861Z,16.34
2022-10-06T15:42:38.794Z,16.25
2022-10-06T15:45:08.210Z,16.17
2022-10-06T15:47:34.984Z,16.08
2022-10-06T15:50:03.087Z,15.90
2022-10-06T15:52:31.263Z,15.65
2022-10-06T15:54:58.234Z,15.25
2022-10-06T15:57:25.094Z,15.19
2022-10-06T15:59:52.857Z,15.05
2022-10-06T16:02:21.545Z,15.03
2022-10-06T16:04:52.635Z,14.94
2022-10-06T16:07:20.193Z,14.82
2022-10-06T16:09:49.994Z,14.70
2022-10-06T16:12:19.099Z,14.61
2022-10-06T16:14:46.267Z,14.31
2022-10-06T16:17:14.434Z,14.24
2022-10-06T16:19:41.882Z,14.12
2022-10-06T16:22:11.066Z,13.85
2022-10-06T16:24:38.267Z,13.57
2022-10-06T16:27:06.903Z,13.32
2022-10-06T16:29:33.950Z,13.01
2022-10-06T16:32:00.851Z,12.88
2022-10-06T16:34:27.744Z,12.76
2022-10-06T16:36:55.614Z,12.70
2022-10-06T16:39:23.268Z,12.64
2022-10-06T16:41:52.377Z,12.18
2022-10-06T16:44:21.846Z,12.00
2022-10-06T16:46:49.974Z,12.24
2022-10-06T16:49:17.404Z,12.32
2022-10-06T16:51:45.051Z,12.27
2022-10-06T16:54:13.845Z,12.00
2022-10-06T16:56:42.227Z,11.95
2022-10-06T16:59:12.741Z,11.68
2022-10-06T17:01:41.224Z,11.66
2022-10-06T17:04:10.042Z,11.62
2022-10-06T17:06:38.716Z,11.61
2022-10-06T17:09:07.875Z,11.39
2022-10-06T17:11:35.915Z,11.46
2022-10-06T17:14:04.331Z,11.14
2022-10-06T17:16:34.493Z,11.32
2022-10-06T17:19:03.547Z,11.31
2022-10-06T17:21:45.555Z,11.25
2022-10-06T17:24:14.027Z,11.39
2022-10-06T17:26:42.862Z,11.30
2022-10-06T17:29:15.251Z,11.02
2022-10-06T17:31:43.505Z,11.18
2022-10-06T17:34:15.939Z,11.03
2022-10-06T17:36:47.805Z,10.83
2022-10-06T17:39:17.386Z,10.81
2022-10-06T17:41:45.375Z,11.03
2022-10-06T17:44:14.145Z,11.14
2022-10-06T17:46:42.494Z,10.97
2022-10-06T17:49:13.353Z,10.89
2022-10-06T17:51:41.773Z,10.80
2022-10-06T17:54:11.159Z,10.83
2022-10-06T17:56:38.610Z,10.94
2022-10-06T17:59:07.004Z,10.84
2022-10-06T18:01:35.972Z,10.67
2022-10-06T18:04:06.123Z,10.46
2022-10-06T18:06:35.678Z,10.27
2022-10-06T18:09:03.820Z,10.48
2022-10-06T18:11:33.291Z,10.66
2022-10-06T18:14:01.403Z,10.47
2022-10-06T18:16:30.062Z,10.65
2022-10-06T18:18:59.048Z,10.45
2022-10-06T18:21:26.056Z,10.32
2022-10-06T18:23:55.004Z,10.30
2022-10-06T18:26:21.870Z,10.18
2022-10-06T18:28:49.911Z,9.98
2022-10-06T18:31:18.376Z,10.04
2022-10-06T18:36:34.030Z,10.12
2022-10-06T18:39:02.181Z,10.18
2022-10-06T18:41:29.129Z,10.12
2022-10-06T18:43:55.851Z,10.29
2022-10-06T18:46:23.127Z,10.30
2022-10-06T18:48:49.996Z,10.26
2022-10-06T18:51:16.839Z,10.33
2022-10-06T18:53:43.756Z,10.25
2022-10-06T18:56:11.900Z,10.33
2022-10-06T18:58:39.703Z,10.21
2022-10-06T19:01:07.437Z,10.27
2022-10-06T19:03:34.412Z,10.26
2022-10-06T19:06:01.195Z,10.30
2022-10-06T19:08:28.308Z,10.24
2022-10-06T19:10:55.096Z,10.25
2022-10-06T19:13:26.175Z,10.24
2022-10-06T19:15:53.385Z,10.17
2022-10-06T19:18:21.148Z,10.04
2022-10-06T19:20:51.167Z,9.96
2022-10-06T19:23:19.660Z,10.07
2022-10-06T19:25:46.488Z,10.12
2022-10-06T19:28:13.445Z,10.09
2022-10-06T19:30:42.914Z,10.08
2022-10-06T19:33:12.294Z,10.32
2022-10-06T19:35:39.329Z,10.29
2022-10-06T19:38:08.420Z,10.20
2022-10-06T19:40:36.812Z,10.11
2022-10-06T19:43:04.915Z,10.07
2022-10-06T19:45:31.835Z,9.95
2022-10-06T19:48:00.392Z,9.93
2022-10-06T19:50:28.606Z,9.90
2022-10-06T19:52:55.809Z,9.84
2022-10-06T19:55:24.096Z,9.82
2022-10-06T19:57:51.955Z,9.80
2022-10-06T20:00:20.383Z,9.68
2022-10-06T20:02:47.558Z,9.67
2022-10-06T20:05:17.709Z,9.53
2022-10-06T20:07:46.461Z,9.49
2022-10-06T20:10:14.451Z,9.63
2022-10-06T20:12:41.875Z,9.82
2022-10-06T20:15:10.030Z,9.85
2022-10-06T20:17:37.139Z,9.82
2022-10-06T20:20:05.505Z,9.77
2022-10-06T20:22:33.659Z,9.79
2022-10-06T20:25:01.769Z,9.72
2022-10-06T20:27:30.731Z,9.63
2022-10-06T20:29:57.810Z,9.61
2022-10-06T20:32:24.626Z,9.67
2022-10-06T20:34:52.909Z,9.49
2022-10-06T20:37:19.847Z,9.37
2022-10-06T20:39:48.781Z,9.34
2022-10-06T20:42:16.960Z,9.43
2022-10-06T20:44:45.769Z,9.51
2022-10-06T20:47:14.507Z,9.50
2022-10-06T20:49:41.427Z,9.53
2022-10-06T20:52:10.093Z,9.48
2022-10-06T20:54:37.014Z,9.47
2022-10-06T20:57:07.768Z,9.46
2022-10-06T20:59:34.712Z,9.50
2022-10-06T21:02:01.800Z,9.50
2022-10-06T21:04:28.875Z,9.17
2022-10-06T21:06:56.840Z,9.35
2022-10-06T21:09:25.574Z,9.18
2022-10-06T21:11:52.405Z,9.35
2022-10-06T21:14:20.741Z,9.46
2022-10-06T21:16:48.725Z,9.16
2022-10-06T21:19:17.845Z,9.01
2022-10-06T21:21:45.958Z,9.09
2022-10-06T21:24:13.080Z,9.13
2022-10-06T21:26:40.346Z,9.11
2022-10-06T21:29:08.487Z,9.09
2022-10-06T21:31:36.766Z,8.94
2022-10-06T21:34:03.693Z,8.90
2022-10-06T21:36:30.653Z,8.90
2022-10-06T21:38:58.932Z,8.86
2022-10-06T21:41:27.758Z,9.00
2022-10-06T21:43:58.738Z,9.00
2022-10-06T21:46:28.983Z,9.00
2022-10-06T21:48:59.005Z,8.99
2022-10-06T21:51:27.091Z,9.03
2022-10-06T21:53:56.000Z,9.06
2022-10-06T21:56:23.509Z,9.03
2022-10-06T21:58:51.789Z,9.07
2022-10-06T22:01:23.528Z,9.07
2022-10-06T22:03:50.925Z,9.13
2022-10-06T22:06:19.973Z,9.08
2022-10-06T22:08:50.406Z,9.14
2022-10-06T22:11:19.900Z,9.05
2022-10-06T22:13:50.042Z,8.82
2022-10-06T22:16:20.385Z,8.97
2022-10-06T22:18:47.803Z,9.01
2022-10-06T22:21:17.127Z,8.97
2022-10-06T22:23:46.694Z,8.80
2022-10-06T22:26:16.823Z,8.78
2022-10-06T22:28:49.927Z,8.70
2022-10-06T22:31:23.202Z,8.48
2022-10-06T22:33:54.078Z,8.38
2022-10-06T22:36:21.073Z,8.46
2022-10-06T22:38:49.318Z,8.44
2022-10-06T22:41:19.896Z,8.45
2022-10-06T22:43:46.961Z,8.37
2022-10-06T22:46:14.331Z,8.57
2022-10-06T22:48:41.470Z,8.60
2022-10-06T22:51:08.424Z,8.43
2022-10-06T22:53:35.732Z,8.30
2022-10-06T22:56:04.078Z,8.56
2022-10-06T22:58:31.567Z,8.53
2022-10-06T23:01:07.860Z,8.53
2022-10-06T23:03:34.924Z,8.31
2022-10-06T23:06:02.104Z,8.29
2022-10-06T23:08:34.225Z,8.29
2022-10-06T23:11:08.439Z,8.31
2022-10-06T23:13:36.874Z,8.34
2022-10-06T23:16:08.276Z,8.38
2022-10-06T23:18:37.862Z,8.48
2022-10-06T23:21:05.495Z,8.34
2022-10-06T23:23:32.511Z,8.14
2022-10-06T23:26:04.179Z,8.22
2022-10-06T23:28:33.912Z,8.18
2022-10-06T23:31:00.821Z,8.34
2022-10-06T23:33:30.149Z,8.35
2022-10-06T23:35:57.690Z,8.38
2022-10-06T23:38:24.634Z,8.40
2022-10-06T23:40:51.714Z,8.32
2022-10-06T23:43:18.602Z,8.27
2022-10-06T23:45:47.050Z,8.24
2022-10-06T23:48:13.919Z,8.12
2022-10-06T23:50:41.087Z,8.18
2022-10-06T23:53:08.215Z,8.22
2022-10-06T23:55:36.230Z,8.19
2022-10-06T23:58:05.253Z,8.12
